createdAt,value
2023-04-19T00:01:18.048Z,10.90
2023-04-19T00:03:45.580Z,11.02
2023-04-19T00:06:14.981Z,10.93
2023-04-19T00:08:42.257Z,10.94
2023-04-19T00:11:10.060Z,10.89
2023-04-19T00:13:36.749Z,11.01
2023-04-19T00:16:03.302Z,11.01
2023-04-19T00:18:29.808Z,11.00
2023-04-19T00:20:56.553Z,10.98
2023-04-19T00:23:23.291Z,10.68
2023-04-19T00:25:50.017Z,10.47
2023-04-19T00:28:16.509Z,10.34
2023-04-19T00:30:43.030Z,10.12
2023-04-19T00:33:12.777Z,9.94
2023-04-19T00:35:42.780Z,9.82
2023-04-19T00:38:09.362Z,9.75
2023-04-19T00:40:37.762Z,9.61
2023-04-19T00:43:04.993Z,9.45
2023-04-19T00:45:34.718Z,9.39
2023-04-19T00:48:02.716Z,9.33
2023-04-19T00:50:29.562Z,9.12
2023-04-19T00:52:57.638Z,9.08
2023-04-19T00:55:24.625Z,9.10
2023-04-19T00:57:52.009Z,8.97
2023-04-19T01:00:19.812Z,8.93
2023-04-19T01:02:48.019Z,8.80
2023-04-19T01:05:15.017Z,8.74
2023-04-19T01:07:41.969Z,8.75
2023-04-19T01:10:08.964Z,8.65
2023-04-19T01:12:36.194Z,8.58
2023-04-19T01:15:02.796Z,8.71
2023-04-19T01:17:32.812Z,8.56
2023-04-19T01:20:03.911Z,8.46
2023-04-19T01:22:31.947Z,8.33
2023-04-19T01:24:58.903Z,8.29
2023-04-19T01:27:25.392Z,8.21
2023-04-19T01:29:52.035Z,8.13
2023-04-19T01:32:18.756Z,8.13
2023-04-19T01:34:45.268Z,8.14
2023-04-19T01:37:11.717Z,8.02
2023-04-19T01:39:38.454Z,7.99
2023-04-19T01:42:04.878Z,7.94
2023-04-19T01:44:31.719Z,7.94
2023-04-19T01:46:58.785Z,7.88
2023-04-19T01:49:25.271Z,7.92
2023-04-19T01:51:52.130Z,7.86
2023-04-19T01:54:18.860Z,7.79
2023-04-19T01:56:45.565Z,7.76
2023-04-19T01:59:12.415Z,7.75
2023-04-19T02:01:39.695Z,7.78
2023-04-19T02:04:07.527Z,7.74
2023-04-19T02:06:33.978Z,7.72
2023-04-19T02:09:00.482Z,7.69
2023-04-19T02:11:27.214Z,7.62
2023-04-19T02:13:53.784Z,7.55
2023-04-19T02:16:20.248Z,7.50
2023-04-19T02:18:48.083Z,7.54
2023-04-19T02:21:14.687Z,7.58
2023-04-19T02:23:41.173Z,7.60
2023-04-19T02:26:07.655Z,7.63
2023-04-19T02:28:34.429Z,7.56
2023-04-19T02:31:04.254Z,7.49
2023-04-19T02:33:30.851Z,7.61
2023-04-19T02:35:57.466Z,7.51
2023-04-19T02:38:24.075Z,7.41
2023-04-19T02:40:51.156Z,7.34
2023-04-19T02:43:18.217Z,7.26
2023-04-19T02:45:44.971Z,7.17
2023-04-19T02:48:11.939Z,6.95
2023-04-19T02:50:38.743Z,6.70
2023-04-19T02:53:05.765Z,6.65
2023-04-19T02:55:33.214Z,6.48
2023-04-19T02:57:59.962Z,6.60
2023-04-19T03:00:26.904Z,6.58
2023-04-19T03:02:53.593Z,6.81
2023-04-19T03:05:20.389Z,6.81
2023-04-19T03:07:47.123Z,6.81
2023-04-19T03:10:13.871Z,6.88
2023-04-19T03:12:40.622Z,6.86
2023-04-19T03:15:08.369Z,6.93
2023-04-19T03:17:35.863Z,6.96
2023-04-19T03:20:02.739Z,6.93
2023-04-19T03:22:29.671Z,7.00
2023-04-19T03:24:56.721Z,7.07
2023-04-19T03:27:23.078Z,7.20
2023-04-19T03:29:49.630Z,7.09
2023-04-19T03:32:16.452Z,7.07
2023-04-19T03:34:43.032Z,7.06
2023-04-19T03:37:09.487Z,7.20
2023-04-19T03:39:36.161Z,7.32
2023-04-19T03:42:03.014Z,7.13
2023-04-19T03:44:33.210Z,7.16
2023-04-19T03:46:59.906Z,7.11
2023-04-19T03:49:26.454Z,7.16
2023-04-19T03:51:53.004Z,7.16
2023-04-19T03:54:20.203Z,7.13
2023-04-19T03:56:47.335Z,7.06
2023-04-19T03:59:13.951Z,6.79
2023-04-19T04:01:42.294Z,6.70
2023-04-19T04:04:11.821Z,6.52
2023-04-19T04:06:38.841Z,6.58
2023-04-19T04:09:05.996Z,6.71
2023-04-19T04:11:32.868Z,6.71
2023-04-19T04:13:59.429Z,6.65
2023-04-19T04:16:25.929Z,6.70
2023-04-19T04:18:53.039Z,6.51
2023-04-19T04:21:19.646Z,6.69
2023-04-19T04:23:47.334Z,6.78
2023-04-19T04:26:13.878Z,6.74
2023-04-19T04:28:41.286Z,6.76
2023-04-19T04:31:07.909Z,6.76
2023-04-19T04:33:34.655Z,6.75
2023-04-19T04:36:01.044Z,6.82
2023-04-19T04:38:28.202Z,6.73
2023-04-19T04:40:55.743Z,6.78
2023-04-19T04:43:24.399Z,6.77
2023-04-19T04:45:51.896Z,6.87
2023-04-19T04:48:18.700Z,6.81
2023-04-19T04:50:45.224Z,6.80
2023-04-19T04:53:14.548Z,7.00
2023-04-19T04:55:41.297Z,6.85
2023-04-19T04:58:08.182Z,6.85
2023-04-19T05:00:34.974Z,6.94
2023-04-19T05:03:03.136Z,6.78
2023-04-19T05:05:30.141Z,6.82
2023-04-19T05:07:57.072Z,6.72
2023-04-19T05:10:23.890Z,6.80
2023-04-19T05:12:51.283Z,6.91
2023-04-19T05:15:17.901Z,7.12
2023-04-19T05:17:44.971Z,7.15
2023-04-19T05:20:12.179Z,7.19
2023-04-19T05:22:39.587Z,7.12
2023-04-19T05:25:06.934Z,7.37
2023-04-19T05:27:33.688Z,7.39
2023-04-19T05:30:00.218Z,7.44
2023-04-19T05:32:27.842Z,7.64
2023-04-19T05:34:54.287Z,7.60
2023-04-19T05:37:20.984Z,7.75
2023-04-19T05:39:47.541Z,7.79
2023-04-19T05:42:14.249Z,7.82
2023-04-19T05:44:41.312Z,7.89
2023-04-19T05:47:08.790Z,7.97
2023-04-19T05:49:35.895Z,8.18
2023-04-19T05:52:02.411Z,8.21
2023-04-19T05:54:34.400Z,8.27
2023-04-19T05:57:04.466Z,8.21
2023-04-19T05:59:31.563Z,8.33
2023-04-19T06:01:58.093Z,8.39
2023-04-19T06:04:25.573Z,8.54
2023-04-19T06:06:52.572Z,8.63
2023-04-19T06:09:19.510Z,8.69
2023-04-19T06:11:50.940Z,8.92
2023-04-19T06:14:18.678Z,8.96
2023-04-19T06:16:45.566Z,8.99
2023-04-19T06:19:12.237Z,9.04
2023-04-19T06:21:38.737Z,9.33
2023-04-19T06:24:08.460Z,9.17
2023-04-19T06:26:35.042Z,9.14
2023-04-19T06:29:01.838Z,9.08
2023-04-19T06:31:28.888Z,9.21
2023-04-19T06:33:55.738Z,9.39
2023-04-19T06:36:22.168Z,9.48
2023-04-19T06:38:49.869Z,9.45
2023-04-19T06:41:16.470Z,9.64
2023-04-19T06:43:44.672Z,9.57
2023-04-19T06:46:13.705Z,9.75
2023-04-19T06:48:40.394Z,9.83
2023-04-19T06:51:06.944Z,10.02
2023-04-19T06:53:34.302Z,10.20
2023-04-19T06:56:02.674Z,10.52
2023-04-19T06:58:29.741Z,10.58
2023-04-19T07:00:56.576Z,10.98
2023-04-19T07:03:23.233Z,11.21
2023-04-19T07:05:52.164Z,11.45
2023-04-19T07:08:18.782Z,11.62
2023-04-19T07:10:45.340Z,11.74
2023-04-19T07:13:12.376Z,11.64
2023-04-19T07:15:39.547Z,11.62
2023-04-19T07:18:06.254Z,11.86
2023-04-19T07:20:33.009Z,11.83
2023-04-19T07:22:59.669Z,11.88
2023-04-19T07:25:27.325Z,12.02
2023-04-19T07:27:55.565Z,12.20
2023-04-19T07:30:22.467Z,12.24
2023-04-19T07:32:51.678Z,12.25
2023-04-19T07:35:19.351Z,12.37
2023-04-19T07:37:46.347Z,12.15
2023-04-19T07:40:13.330Z,12.33
2023-04-19T07:42:43.564Z,12.43
2023-04-19T07:45:10.727Z,12.23
2023-04-19T07:47:37.905Z,12.41
2023-04-19T07:50:05.888Z,13.45
2023-04-19T07:52:32.665Z,13.86
2023-04-19T07:54:59.536Z,14.14
2023-04-19T07:57:26.292Z,13.50
2023-04-19T07:59:57.734Z,12.86
2023-04-19T08:02:27.812Z,12.74
2023-04-19T08:04:54.806Z,12.64
2023-04-19T08:07:22.958Z,13.07
2023-04-19T08:09:49.756Z,12.97
2023-04-19T08:12:33.038Z,12.97
2023-04-19T08:15:17.975Z,13.51
2023-04-19T08:17:50.761Z,13.38
2023-04-19T08:20:17.780Z,13.66
2023-04-19T08:22:45.480Z,13.37
2023-04-19T08:25:11.933Z,13.55
2023-04-19T08:27:38.610Z,14.04
2023-04-19T08:30:07.640Z,14.00
2023-04-19T08:32:34.706Z,14.20
2023-04-19T08:35:01.256Z,14.50
2023-04-19T08:37:27.745Z,14.95
2023-04-19T08:39:54.480Z,14.72
2023-04-19T08:42:33.203Z,13.76
2023-04-19T08:47:44.875Z,14.36
2023-04-19T08:50:32.371Z,15.23
2023-04-19T08:53:16.533Z,14.83
2023-04-19T08:58:28.897Z,14.77
2023-04-19T09:01:00.346Z,14.63
2023-04-19T09:03:27.248Z,15.24
2023-04-19T09:05:55.237Z,15.13
2023-04-19T09:08:24.805Z,14.39
2023-04-19T09:10:59.802Z,15.70
2023-04-19T09:13:28.013Z,16.57
2023-04-19T09:15:57.050Z,15.95
2023-04-19T09:18:28.339Z,15.99
2023-04-19T09:20:57.593Z,14.81
2023-04-19T09:23:25.829Z,14.34
2023-04-19T09:28:32.187Z,14.72
2023-04-19T09:31:10.588Z,15.51
2023-04-19T09:33:42.090Z,15.94
2023-04-19T09:36:10.728Z,15.36
2023-04-19T09:38:48.838Z,15.54
2023-04-19T09:41:17.334Z,15.90
2023-04-19T09:46:30.349Z,15.99
2023-04-19T09:51:54.613Z,16.18
2023-04-19T09:54:24.299Z,16.22
2023-04-19T09:56:54.727Z,16.29
2023-04-19T09:59:23.231Z,16.78
2023-04-19T10:01:58.143Z,17.28
2023-04-19T10:04:43.512Z,17.96
2023-04-19T10:09:52.913Z,18.07
2023-04-19T10:12:46.324Z,17.10
2023-04-19T10:15:13.384Z,17.14
2023-04-19T10:17:40.319Z,15.84
2023-04-19T10:20:10.965Z,15.18
2023-04-19T10:22:38.768Z,15.28
2023-04-19T10:25:15.511Z,15.97
2023-04-19T10:27:46.811Z,16.06
2023-04-19T10:30:18.014Z,15.62
2023-04-19T10:32:52.401Z,15.28
2023-04-19T10:35:24.772Z,15.87
2023-04-19T10:38:10.264Z,19.57
2023-04-19T10:40:52.053Z,17.07
2023-04-19T10:43:19.705Z,15.68
2023-04-19T10:45:47.531Z,15.45
2023-04-19T10:48:26.363Z,17.20
2023-04-19T10:51:03.833Z,19.15
2023-04-19T10:53:50.754Z,20.37
2023-04-19T10:56:39.169Z,19.35
2023-04-19T10:59:10.226Z,18.72
2023-04-19T11:01:52.000Z,23.76
2023-04-19T11:04:32.161Z,20.17
2023-04-19T11:07:08.398Z,20.79
2023-04-19T11:09:38.936Z,20.74
2023-04-19T11:12:12.175Z,20.95
2023-04-19T11:14:46.264Z,18.87
2023-04-19T11:17:27.153Z,19.57
2023-04-19T11:20:09.213Z,19.83
2023-04-19T11:22:39.707Z,19.68
2023-04-19T11:25:10.470Z,18.90
2023-04-19T11:27:39.067Z,17.17
2023-04-19T11:30:10.452Z,17.31
2023-04-19T11:32:37.999Z,17.40
2023-04-19T11:35:08.857Z,17.92
2023-04-19T11:37:37.246Z,17.98
2023-04-19T11:40:06.255Z,17.86
2023-04-19T11:42:34.104Z,18.62
2023-04-19T11:45:01.411Z,17.59
2023-04-19T11:47:28.615Z,18.11
2023-04-19T11:49:56.319Z,18.70
2023-04-19T11:52:25.285Z,18.24
2023-04-19T11:54:52.877Z,19.17
2023-04-19T11:57:29.895Z,18.59
2023-04-19T12:00:11.569Z,17.27
2023-04-19T12:02:44.120Z,17.83
2023-04-19T12:05:15.794Z,17.29
2023-04-19T12:08:03.588Z,18.90
2023-04-19T12:10:34.056Z,19.39
2023-04-19T12:13:01.102Z,18.99
2023-04-19T12:15:44.288Z,17.82
2023-04-19T12:18:11.559Z,18.70
2023-04-19T12:20:45.382Z,18.39
2023-04-19T12:23:16.332Z,17.96
2023-04-19T12:25:44.985Z,17.79
2023-04-19T12:28:11.864Z,18.13
2023-04-19T12:30:39.085Z,17.72
2023-04-19T12:33:07.416Z,18.84
2023-04-19T12:35:35.363Z,17.46
2023-04-19T12:38:02.835Z,18.57
2023-04-19T12:40:30.614Z,18.39
2023-04-19T12:42:57.718Z,18.18
2023-04-19T12:45:24.441Z,17.65
2023-04-19T12:47:50.971Z,16.82
2023-04-19T12:50:17.666Z,16.45
2023-04-19T12:52:45.435Z,17.11
2023-04-19T12:55:12.001Z,17.81
2023-04-19T12:57:38.584Z,17.81
2023-04-19T13:00:07.232Z,17.08
2023-04-19T13:02:35.099Z,16.87
2023-04-19T13:05:03.771Z,17.11
2023-04-19T13:07:31.351Z,17.72
2023-04-19T13:09:57.975Z,17.95
2023-04-19T13:12:24.768Z,17.17
2023-04-19T13:14:53.027Z,17.27
2023-04-19T13:17:20.799Z,16.83
2023-04-19T13:19:47.564Z,16.92
2023-04-19T13:22:14.545Z,16.40
2023-04-19T13:24:43.247Z,15.85
2023-04-19T13:27:09.745Z,16.11
2023-04-19T13:29:36.828Z,16.22
2023-04-19T13:32:03.503Z,16.62
2023-04-19T13:34:30.686Z,17.34
2023-04-19T13:36:58.194Z,17.45
2023-04-19T13:39:25.306Z,17.53
2023-04-19T13:41:51.870Z,17.74
2023-04-19T13:44:18.481Z,17.68
2023-04-19T13:46:45.655Z,18.04
2023-04-19T13:49:12.264Z,17.11
2023-04-19T13:51:49.544Z,17.01
2023-04-19T13:54:18.318Z,17.48
2023-04-19T13:56:45.589Z,17.77
2023-04-19T13:59:12.515Z,17.11
2023-04-19T14:01:39.481Z,16.72
2023-04-19T14:04:06.802Z,16.84
2023-04-19T14:06:33.760Z,17.12
2023-04-19T14:09:00.324Z,17.17
2023-04-19T14:11:26.862Z,16.73
2023-04-19T14:13:54.117Z,17.01
2023-04-19T14:16:24.083Z,17.13
2023-04-19T14:18:51.052Z,16.92
2023-04-19T14:21:17.854Z,17.21
2023-04-19T14:23:44.296Z,17.14
2023-04-19T14:26:12.961Z,16.65
2023-04-19T14:28:39.849Z,17.30
2023-04-19T14:31:06.341Z,17.39
2023-04-19T14:33:33.183Z,17.06
2023-04-19T14:36:00.781Z,17.09
2023-04-19T14:38:27.637Z,16.84
2023-04-19T14:40:54.558Z,17.23
2023-04-19T14:43:21.376Z,16.63
2023-04-19T14:45:49.738Z,16.56
2023-04-19T14:48:16.355Z,16.73
2023-04-19T14:50:42.745Z,16.57
2023-04-19T14:53:09.776Z,16.42
2023-04-19T14:55:38.937Z,16.41
2023-04-19T14:58:05.751Z,16.58
2023-04-19T15:00:33.598Z,16.35
2023-04-19T15:03:01.374Z,16.27
2023-04-19T15:05:28.624Z,15.97
2023-04-19T15:07:55.753Z,16.15
2023-04-19T15:10:22.234Z,16.32
2023-04-19T15:12:48.723Z,16.28
2023-04-19T15:15:16.384Z,16.29
2023-04-19T15:17:43.496Z,16.71
2023-04-19T15:20:10.216Z,16.34
2023-04-19T15:22:36.958Z,16.20
2023-04-19T15:25:03.810Z,16.04
2023-04-19T15:27:31.131Z,16.10
2023-04-19T15:29:57.506Z,15.94
2023-04-19T15:32:24.192Z,15.91
2023-04-19T15:34:50.707Z,15.78
2023-04-19T15:37:17.272Z,15.81
2023-04-19T15:39:44.244Z,15.41
2023-04-19T15:42:10.760Z,15.65
2023-04-19T15:44:37.283Z,15.67
2023-04-19T15:47:03.898Z,15.86
2023-04-19T15:49:30.514Z,15.85
2023-04-19T15:51:57.220Z,15.82
2023-04-19T15:54:23.673Z,15.87
2023-04-19T15:56:50.625Z,16.12
2023-04-19T15:59:17.572Z,16.09
2023-04-19T16:01:44.372Z,15.47
2023-04-19T16:04:11.014Z,15.86
2023-04-19T16:06:37.835Z,15.62
2023-04-19T16:09:04.456Z,16.18
2023-04-19T16:11:31.473Z,16.31
2023-04-19T16:13:58.150Z,15.47
2023-04-19T16:16:26.949Z,15.64
2023-04-19T16:18:53.414Z,15.57
2023-04-19T16:21:20.186Z,15.75
2023-04-19T16:23:46.705Z,15.19
2023-04-19T16:26:13.454Z,15.07
2023-04-19T16:28:39.971Z,14.91
2023-04-19T16:31:06.962Z,15.09
2023-04-19T16:33:33.368Z,15.28
2023-04-19T16:36:00.587Z,14.99
2023-04-19T16:38:28.195Z,15.09
2023-04-19T16:40:55.697Z,14.93
2023-04-19T16:43:22.240Z,14.82
2023-04-19T16:45:49.578Z,14.92
2023-04-19T16:48:16.553Z,14.98
2023-04-19T16:50:43.212Z,14.90
2023-04-19T16:53:11.007Z,14.30
2023-04-19T16:55:38.293Z,13.91
2023-04-19T16:58:05.396Z,13.77
2023-04-19T17:00:32.286Z,13.65
2023-04-19T17:02:59.985Z,13.48
2023-04-19T17:05:26.573Z,13.42
2023-04-19T17:07:54.800Z,13.37
2023-04-19T17:10:22.887Z,13.40
2023-04-19T17:17:19.829Z,13.46
2023-04-19T17:19:46.770Z,13.53
2023-04-19T17:22:14.730Z,13.61
2023-04-19T17:24:41.717Z,13.66
2023-04-19T17:27:08.524Z,13.64
2023-04-19T17:29:35.600Z,13.70
2023-04-19T17:32:02.323Z,13.70
2023-04-19T17:34:29.046Z,13.74
2023-04-19T17:36:55.970Z,13.71
2023-04-19T17:39:27.571Z,13.59
2023-04-19T17:41:55.176Z,13.48
2023-04-19T17:44:22.746Z,13.41
2023-04-19T17:46:49.196Z,13.32
2023-04-19T17:49:17.626Z,13.25
2023-04-19T17:51:44.314Z,13.17
2023-04-19T17:54:11.244Z,13.08
2023-04-19T17:56:38.149Z,13.08
2023-04-19T17:59:04.841Z,12.81
2023-04-19T18:01:33.398Z,12.71
2023-04-19T18:04:00.645Z,12.71
2023-04-19T18:06:27.484Z,12.69
2023-04-19T18:08:54.128Z,12.65
2023-04-19T18:11:21.169Z,12.46
2023-04-19T18:13:48.134Z,12.35
2023-04-19T18:16:17.031Z,12.11
2023-04-19T18:18:44.094Z,11.98
2023-04-19T18:21:11.026Z,11.84
2023-04-19T18:23:37.958Z,11.92
2023-04-19T18:26:04.641Z,12.21
2023-04-19T18:28:31.777Z,11.57
2023-04-19T18:30:58.781Z,11.28
2023-04-19T18:33:25.548Z,11.15
2023-04-19T18:35:53.827Z,11.26
2023-04-19T18:38:20.981Z,11.13
2023-04-19T18:40:47.558Z,10.87
2023-04-19T18:43:14.408Z,10.63
2023-04-19T18:45:40.980Z,10.51
2023-04-19T18:48:08.506Z,10.47
2023-04-19T18:50:36.942Z,10.24
2023-04-19T18:53:03.856Z,10.08
2023-04-19T18:55:31.011Z,9.98
2023-04-19T18:57:57.490Z,9.82
2023-04-19T19:00:25.033Z,9.69
2023-04-19T19:02:52.943Z,9.54
2023-04-19T19:05:20.380Z,9.41
2023-04-19T19:07:48.324Z,9.39
2023-04-19T19:10:20.911Z,9.41
2023-04-19T19:12:49.325Z,9.25
2023-04-19T19:15:16.468Z,9.14
2023-04-19T19:17:48.588Z,9.16
2023-04-19T19:20:18.889Z,9.12
2023-04-19T19:22:46.159Z,8.95
2023-04-19T19:25:13.255Z,8.85
2023-04-19T19:27:40.221Z,8.86
2023-04-19T19:30:08.221Z,8.74
2023-04-19T19:32:35.946Z,8.72
2023-04-19T19:35:06.371Z,8.67
2023-04-19T19:37:39.631Z,8.59
2023-04-19T19:40:10.756Z,8.56
2023-04-19T19:42:41.185Z,8.49
2023-04-19T19:45:09.332Z,8.45
2023-04-19T19:47:45.236Z,8.47
2023-04-19T19:51:05.040Z,8.30
2023-04-19T19:53:13.545Z,8.21
2023-04-19T19:55:40.201Z,8.19
2023-04-19T20:00:47.913Z,8.28
2023-04-19T20:03:32.782Z,8.69
2023-04-19T20:06:25.764Z,8.99
2023-04-19T20:08:49.972Z,8.61
2023-04-19T20:11:16.583Z,8.36
2023-04-19T20:13:43.518Z,8.21
2023-04-19T20:16:10.726Z,8.49
2023-04-19T20:18:40.149Z,8.46
2023-04-19T20:21:33.085Z,8.19
2023-04-19T20:24:05.920Z,8.02
2023-04-19T20:26:33.353Z,7.95
2023-04-19T20:29:01.152Z,8.57
2023-04-19T20:31:28.164Z,8.17
2023-04-19T20:33:54.794Z,8.23
2023-04-19T20:36:24.656Z,8.09
2023-04-19T20:38:51.462Z,8.22
2023-04-19T20:41:18.596Z,8.09
2023-04-19T20:43:45.260Z,8.05
2023-04-19T20:46:11.949Z,7.87
2023-04-19T20:48:38.431Z,7.87
2023-04-19T20:51:04.979Z,8.18
2023-04-19T20:53:34.144Z,7.81
2023-04-19T20:56:02.641Z,7.73
2023-04-19T20:58:32.071Z,7.51
2023-04-19T21:00:59.168Z,7.41
2023-04-19T21:03:26.507Z,7.51
2023-04-19T21:05:53.195Z,7.37
2023-04-19T21:08:19.769Z,7.33
2023-04-19T21:10:46.523Z,7.32
2023-04-19T21:13:13.162Z,7.56
2023-04-19T21:15:41.017Z,7.40
2023-04-19T21:18:07.584Z,7.12
2023-04-19T21:20:34.347Z,7.25
2023-04-19T21:23:01.980Z,7.29
2023-04-19T21:25:28.757Z,7.09
2023-04-19T21:27:58.647Z,6.89
2023-04-19T21:30:25.784Z,7.00
2023-04-19T21:32:52.822Z,6.89
2023-04-19T21:35:19.973Z,6.81
2023-04-19T21:37:46.965Z,6.81
2023-04-19T21:40:13.625Z,6.73
2023-04-19T21:42:40.365Z,6.67
2023-04-19T21:45:07.566Z,6.62
2023-04-19T21:47:34.568Z,6.61
2023-04-19T21:50:01.397Z,6.55
2023-04-19T21:52:28.188Z,6.53
2023-04-19T21:54:54.676Z,6.51
2023-04-19T21:57:24.418Z,6.44
2023-04-19T21:59:51.230Z,6.39
2023-04-19T22:02:17.875Z,6.40
2023-04-19T22:04:45.671Z,6.37
2023-04-19T22:07:12.671Z,6.34
2023-04-19T22:09:39.698Z,6.25
2023-04-19T22:12:06.424Z,6.23
2023-04-19T22:14:35.585Z,6.29
2023-04-19T22:17:02.990Z,6.26
2023-04-19T22:19:29.931Z,6.22
2023-04-19T22:21:56.771Z,6.16
2023-04-19T22:24:24.052Z,6.13
2023-04-19T22:26:50.900Z,6.05
2023-04-19T22:29:17.629Z,5.93
2023-04-19T22:31:45.145Z,5.90
2023-04-19T22:34:15.248Z,5.88
2023-04-19T22:36:42.157Z,5.82
2023-04-19T22:39:09.081Z,5.75
2023-04-19T22:41:35.718Z,5.72
2023-04-19T22:44:03.044Z,5.60
2023-04-19T22:46:29.781Z,5.60
2023-04-19T22:48:57.472Z,5.71
2023-04-19T22:51:24.241Z,5.57
2023-04-19T22:53:50.866Z,5.51
2023-04-19T22:56:17.848Z,5.48
2023-04-19T22:58:44.636Z,5.62
2023-04-19T23:01:11.854Z,5.61
2023-04-19T23:03:38.467Z,5.61
2023-04-19T23:06:05.928Z,5.72
2023-04-19T23:08:33.395Z,5.64
2023-04-19T23:11:00.337Z,5.59
2023-04-19T23:13:28.318Z,5.86
2023-04-19T23:15:55.109Z,5.70
2023-04-19T23:18:21.756Z,5.55
2023-04-19T23:20:48.231Z,5.47
2023-04-19T23:23:14.861Z,5.30
2023-04-19T23:25:42.080Z,5.32
2023-04-19T23:28:09.843Z,5.23
2023-04-19T23:30:38.680Z,5.06
2023-04-19T23:33:05.605Z,5.06
2023-04-19T23:35:32.773Z,4.86
2023-04-19T23:37:59.369Z,4.75
2023-04-19T23:40:26.264Z,4.69
2023-04-19T23:42:52.776Z,4.51
2023-04-19T23:45:19.428Z,4.49
2023-04-19T23:47:46.169Z,4.49
2023-04-19T23:50:12.804Z,4.55
2023-04-19T23:52:40.029Z,4.65
2023-04-19T23:55:06.888Z,4.88
2023-04-19T23:57:35.590Z,5.16
